Terminal Aerodrome Forecast
Issued by NWS

Current Version | Previous Version | Graphics & Text | Print | Product List | Glossary On
Versions: 1 2 3 4 5 6 7 8 9 10 11 12 13 14
000
FTUS41 KPBZ 290526
TAFHLG
TAF
KHLG 290526Z 2906/3006 VRB04KT P6SM SCT250
     FM291500 16005KT P6SM BKN040
     FM291800 19005KT P6SM VCTS BKN040CB BKN100
     FM300300 VRB04KT P6SM BKN080=

USA.gov is the U.S. government's official web portal to all federal, state and local government web resources and services.